Time;durP1;ratioP1;P1;durP2;ratioP2;P2;SDS_P1;SDS_P2;PMS_P1;PMS_P2;Temp;Humidity;BMP_temperature;BMP_pressure;BME280_temperature;BME280_humidity;BME280_pressure;Samples;Min_cycle;Max_cycle;Signal;HPM_P1;HPM_P2
2023/01/28 00:00:07;;;;;;;;;27.25;25.25;;;;;5.54;100.00;102175.28;5052491;28;45804;-80
2023/01/28 00:02:34;;;;;;;;;32.00;24.67;;;;;5.65;100.00;102210.56;5052420;28;45376;-80
2023/01/28 00:05:00;;;;;;;;;23.75;18.50;;;;;5.62;100.00;102214.41;5049159;28;45766;-79
2023/01/28 00:07:26;;;;;;;;;23.00;16.33;;;;;5.54;100.00;102195.22;5034688;28;45501;-80
2023/01/28 00:09:51;;;;;;;;;32.67;22.67;;;;;5.51;100.00;102202.78;5053769;28;45860;-80
2023/01/28 00:12:17;;;;;;;;;25.50;22.75;;;;;5.61;100.00;102211.84;5038371;28;45363;-80
2023/01/28 00:14:45;;;;;;;;;24.00;21.00;;;;;5.58;100.00;102217.56;5063743;28;45969;-78
2023/01/28 00:17:10;;;;;;;;;21.00;19.67;;;;;5.56;100.00;102208.69;5054046;28;45503;-79
2023/01/28 00:19:36;;;;;;;;;21.33;20.00;;;;;5.52;100.00;102201.81;5049208;28;45567;-80
2023/01/28 00:22:03;;;;;;;;;29.33;24.33;;;;;5.45;100.00;102191.47;5038663;28;45571;-80
2023/01/28 00:24:29;;;;;;;;;25.67;23.67;;;;;5.56;100.00;102203.25;5051902;28;45397;-81
2023/01/28 00:26:54;;;;;;;;;22.67;20.33;;;;;5.63;100.00;102209.84;5051978;28;45379;-80
2023/01/28 00:29:20;;;;;;;;;22.67;18.67;;;;;5.64;100.00;102211.56;5034383;28;45486;-79
2023/01/28 00:31:45;;;;;;;;;35.25;21.25;;;;;5.60;100.00;102196.53;5037255;28;45406;-79
2023/01/28 00:34:11;;;;;;;;;20.33;17.33;;;;;5.63;100.00;102205.25;5051752;28;46415;-79
2023/01/28 00:36:38;;;;;;;;;21.33;19.67;;;;;5.58;100.00;102190.34;5060941;28;45698;-80
2023/01/28 00:39:04;;;;;;;;;24.33;20.00;;;;;5.54;100.00;102194.34;5026394;28;45522;-80
2023/01/28 00:41:32;;;;;;;;;26.33;22.00;;;;;5.55;100.00;102196.06;5054182;28;45932;-79
2023/01/28 00:43:58;;;;;;;;;31.25;23.50;;;;;5.63;100.00;102199.81;5070530;28;46995;-80
2023/01/28 00:46:27;;;;;;;;;34.75;27.50;;;;;5.52;100.00;102178.16;5071477;27;46392;-79
2023/01/28 00:48:53;;;;;;;;;27.33;21.67;;;;;5.62;100.00;102194.53;5071436;27;45405;-80
2023/01/28 00:51:20;;;;;;;;;30.67;21.00;;;;;5.63;100.00;102198.97;5071406;27;45504;-79
2023/01/28 00:53:45;;;;;;;;;23.67;23.67;;;;;5.63;100.00;102198.97;5062536;28;45780;-80
2023/01/28 00:56:13;;;;;;;;;21.67;15.67;;;;;5.60;100.00;102196.53;5067879;27;45333;-80
2023/01/28 00:58:39;;;;;;;;;24.33;20.00;;;;;5.58;100.00;102202.09;5084290;27;45641;-79
2023/01/28 01:01:12;;;;;;;;;26.75;18.50;;;;;5.58;100.00;102201.25;5067371;27;46384;-79
2023/01/28 01:03:42;;;;;;;;;22.67;18.33;;;;;5.56;100.00;102200.53;5060400;28;47825;-79
2023/01/28 01:06:08;;;;;;;;;29.00;23.33;;;;;5.53;100.00;102206.25;5089279;27;45392;-78
2023/01/28 01:08:34;;;;;;;;;27.67;23.67;;;;;5.42;100.00;102186.31;5071747;28;45773;-79
2023/01/28 01:11:01;;;;;;;;;29.00;24.00;;;;;5.56;100.00;102214.13;5071123;28;45450;-78
2023/01/28 01:13:27;;;;;;;;;24.00;21.67;;;;;5.44;100.00;102183.47;5062580;27;47031;-76
2023/01/28 01:16:09;;;;;;;;;25.00;19.00;;;;;5.54;100.00;102199.78;5074576;27;45460;-79
2023/01/28 01:18:36;;;;;;;;;27.00;19.67;;;;;5.54;100.00;102218.84;5071094;28;45672;-78
2023/01/28 01:21:02;;;;;;;;;23.33;19.00;;;;;5.54;100.00;102217.00;5043499;28;47113;-79
2023/01/28 01:23:29;;;;;;;;;22.00;18.00;;;;;5.54;100.00;102216.13;5068881;27;45452;-78
2023/01/28 01:25:55;;;;;;;;;20.33;18.00;;;;;5.47;100.00;102204.94;5070128;28;45359;-78
2023/01/28 01:28:21;;;;;;;;;27.00;22.33;;;;;5.42;100.00;102202.66;5057605;28;45690;-78
2023/01/28 01:30:57;;;;;;;;;23.67;21.67;;;;;5.54;100.00;102216.13;5079193;27;45654;-78
2023/01/28 01:33:23;;;;;;;;;28.33;21.00;;;;;5.53;100.00;102208.97;5070850;28;46152;-79
2023/01/28 01:35:53;;;;;;;;;28.67;24.00;;;;;5.58;100.00;102223.84;5070892;28;45453;-78
2023/01/28 01:38:19;;;;;;;;;24.50;21.50;;;;;5.51;100.00;102219.13;5081459;27;45720;-79
2023/01/28 01:40:44;;;;;;;;;26.00;21.67;;;;;5.55;100.00;102228.72;5059163;28;46497;-80
2023/01/28 01:43:19;;;;;;;;;24.33;21.67;;;;;5.56;100.00;102219.56;5070029;28;46827;-78
2023/01/28 01:45:49;;;;;;;;;27.33;21.67;;;;;5.55;100.00;102223.28;5051927;28;45723;-80
2023/01/28 01:48:24;;;;;;;;;24.00;20.33;;;;;5.47;100.00;102215.81;5060298;27;45853;-78
2023/01/28 01:51:14;;;;;;;;;20.67;19.33;;;;;5.50;100.00;102211.97;5072362;27;45886;-79
2023/01/28 01:53:44;;;;;;;;;21.00;17.00;;;;;5.49;100.00;102216.53;5064442;27;45434;-78
2023/01/28 01:56:13;;;;;;;;;27.67;22.33;;;;;5.54;100.00;102227.00;5068878;28;45465;-79
2023/01/28 01:58:41;;;;;;;;;22.67;19.33;;;;;5.55;100.00;102220.56;5066488;28;45737;-81
2023/01/28 02:01:08;;;;;;;;;22.33;19.67;;;;;5.62;100.00;102219.00;5074080;27;45658;-78
2023/01/28 02:03:50;;;;;;;;;24.00;18.67;;;;;5.62;100.00;102217.16;5072062;27;45561;-79
2023/01/28 02:06:16;;;;;;;;;24.33;19.33;;;;;5.63;100.00;102210.72;5071153;27;45402;-79
2023/01/28 02:08:44;;;;;;;;;26.67;22.33;;;;;5.64;100.00;102207.00;5051835;28;45768;-78
2023/01/28 02:11:12;;;;;;;;;27.33;19.33;;;;;5.75;100.00;102214.16;5069977;28;45710;-78
2023/01/28 02:13:42;;;;;;;;;20.67;16.00;;;;;5.76;100.00;102215.91;5070256;28;46285;-78
2023/01/28 02:16:10;;;;;;;;;33.00;27.33;;;;;5.67;100.00;102200.38;5062673;27;45709;-78
2023/01/28 02:18:36;;;;;;;;;22.67;19.67;;;;;5.75;100.00;102214.16;5083585;27;45512;-76
2023/01/28 02:21:26;;;;;;;;;25.00;21.67;;;;;5.74;100.00;102215.16;5076436;27;45923;-78
2023/01/28 02:24:26;;;;;;;;;24.33;20.00;;;;;5.68;100.00;102213.00;5074860;27;46323;-78
2023/01/28 02:27:13;;;;;;;;;28.67;21.00;;;;;5.61;100.00;102209.13;5074067;27;45912;-78
2023/01/28 02:29:42;;;;;;;;;28.00;24.00;;;;;5.60;100.00;102216.44;5067996;27;45366;-78
2023/01/28 02:32:41;;;;;;;;;19.67;18.33;;;;;5.57;100.00;102227.59;5075671;27;45710;-80
2023/01/28 02:35:23;;;;;;;;;29.67;21.33;;;;;5.46;100.00;102224.97;5065798;28;45845;-76
2023/01/28 02:38:14;;;;;;;;;26.67;22.67;;;;;5.47;100.00;102227.56;5047255;28;45597;-76
2023/01/28 02:43:42;;;;;;;;;30.00;22.33;;;;;5.47;100.00;102240.31;5060505;28;45544;-77
2023/01/28 02:49:18;;;;;;;;;32.67;23.33;;;;;5.53;100.00;102230.75;5063722;28;45704;-78
2023/01/28 02:51:55;;;;;;;;;24.00;21.00;;;;;5.44;100.00;102224.28;5074216;28;45849;-78
2023/01/28 02:54:28;;;;;;;;;29.00;25.25;;;;;5.48;100.00;102234.72;5081016;27;45714;-78
2023/01/28 02:56:53;;;;;;;;;22.33;18.67;;;;;5.48;100.00;102228.44;5095755;27;45812;-79
2023/01/28 02:59:48;;;;;;;;;25.33;21.67;;;;;5.46;100.00;102236.75;5071635;27;45650;-78
2023/01/28 03:02:34;;;;;;;;;28.00;24.67;;;;;5.45;100.00;102224.13;5071286;27;45595;-78
2023/01/28 03:05:29;;;;;;;;;25.00;19.67;;;;;5.45;100.00;102224.13;5072976;28;45732;-79
2023/01/28 03:07:56;;;;;;;;;23.33;20.33;;;;;5.47;100.00;102229.44;5071174;27;48249;-78
2023/01/28 03:10:26;;;;;;;;;33.67;27.00;;;;;5.45;100.00;102232.28;5076607;27;45699;-77
2023/01/28 03:38:41;;;;;;;;;25.67;22.67;;;;;5.29;100.00;102240.97;5076192;28;45889;-79
2023/01/28 03:41:08;;;;;;;;;24.50;19.25;;;;;5.45;100.00;102267.66;5065418;28;45446;-78
2023/01/28 03:43:35;;;;;;;;;28.25;24.50;;;;;5.45;100.00;102255.94;5077538;27;45569;-79
2023/01/28 03:46:00;;;;;;;;;37.00;29.50;;;;;5.52;100.00;102267.09;5077124;27;45393;-79
2023/01/28 03:48:27;;;;;;;;;24.67;21.00;;;;;5.57;100.00;102262.09;5052351;28;46568;-78
2023/01/28 03:50:59;;;;;;;;;19.33;14.67;;;;;5.51;100.00;102244.50;5071377;28;45590;-78
2023/01/28 03:53:25;;;;;;;;;21.00;19.33;;;;;5.62;100.00;102262.56;5072687;27;45667;-79
2023/01/28 03:55:52;;;;;;;;;30.00;21.67;;;;;5.62;100.00;102271.56;5070089;28;45441;-77
2023/01/28 03:58:19;;;;;;;;;28.67;22.33;;;;;5.59;100.00;102260.13;5074577;28;45594;-77
2023/01/28 04:00:44;;;;;;;;;25.67;21.67;;;;;5.66;100.00;102266.72;5057474;28;47389;-77
2023/01/28 04:03:17;;;;;;;;;32.33;22.00;;;;;5.56;100.00;102247.63;5076963;27;45841;-78
2023/01/28 04:05:45;;;;;;;;;20.00;19.00;;;;;5.54;100.00;102249.66;5069304;28;45622;-76
2023/01/28 04:08:11;;;;;;;;;28.33;20.00;;;;;5.69;100.00;102266.44;5076237;27;45425;-77
2023/01/28 04:10:38;;;;;;;;;12.00;10.67;;;;;5.70;100.00;102276.31;5076088;28;46092;-79
2023/01/28 04:13:05;;;;;;;;;26.33;21.67;;;;;5.69;100.00;102269.19;5077064;28;45485;-78
2023/01/28 04:15:31;;;;;;;;;23.33;20.00;;;;;5.65;100.00;102262.28;5059548;28;45465;-78
2023/01/28 04:17:56;;;;;;;;;29.67;22.67;;;;;5.74;100.00;102285.94;5084509;27;45528;-78
2023/01/28 04:20:22;;;;;;;;;26.67;25.67;;;;;5.74;100.00;102283.22;5087947;27;46511;-77
2023/01/28 04:22:47;;;;;;;;;35.00;27.00;;;;;5.77;100.00;102290.25;5088519;27;45667;-80
2023/01/28 04:25:16;;;;;;;;;27.00;23.33;;;;;5.71;100.00;102275.34;5044874;28;45456;-78
2023/01/28 04:27:44;;;;;;;;;26.67;22.00;;;;;5.64;100.00;102266.88;5078040;28;45974;-76
2023/01/28 04:30:10;;;;;;;;;31.00;23.00;;;;;5.73;100.00;102281.47;5075033;27;45778;-78
2023/01/28 04:32:36;;;;;;;;;33.33;20.33;;;;;5.52;100.00;102246.19;5074311;28;45449;-81
2023/01/28 04:35:01;;;;;;;;;32.33;19.00;;;;;5.74;100.00;102304.16;5078004;27;45708;-79
2023/01/28 04:37:30;;;;;;;;;27.00;24.00;;;;;5.70;100.00;102291.81;5056908;28;46943;-79
2023/01/28 04:39:55;;;;;;;;;25.67;21.33;;;;;5.69;100.00;102298.22;5088579;27;45872;-77
2023/01/28 04:42:21;;;;;;;;;24.33;21.00;;;;;5.71;100.00;102288.94;5083099;27;45549;-78
2023/01/28 04:44:46;;;;;;;;;22.33;19.33;;;;;5.77;100.00;102293.81;5082189;27;45691;-77
2023/01/28 04:47:12;;;;;;;;;21.00;19.00;;;;;5.63;100.00;102267.00;5088418;27;45528;-77
2023/01/28 04:49:37;;;;;;;;;29.67;23.33;;;;;5.68;100.00;102289.22;5072235;27;46128;-78
2023/01/28 04:52:03;;;;;;;;;34.33;24.67;;;;;5.80;100.00;102298.13;5076384;27;45454;-78
2023/01/28 04:54:29;;;;;;;;;31.67;24.00;;;;;5.77;100.00;102299.28;5070183;27;45375;-77
2023/01/28 04:56:55;;;;;;;;;31.67;24.33;;;;;5.81;100.00;102305.31;5075194;28;46098;-78
2023/01/28 04:59:22;;;;;;;;;24.67;21.33;;;;;5.67;100.00;102290.22;5073086;28;45687;-78
2023/01/28 05:01:48;;;;;;;;;28.33;17.67;;;;;5.72;100.00;102301.56;5074549;27;45403;-80
2023/01/28 05:04:15;;;;;;;;;30.67;25.67;;;;;5.72;100.00;102297.97;5075071;27;45442;-79
2023/01/28 05:06:40;;;;;;;;;30.67;27.67;;;;;5.72;100.00;102306.13;5080661;27;45932;-79
2023/01/28 05:09:06;;;;;;;;;26.67;23.33;;;;;5.55;100.00;102277.72;5070690;28;45461;-80
2023/01/28 05:11:32;;;;;;;;;31.33;24.67;;;;;5.58;100.00;102283.72;5079353;27;45422;-83
2023/01/28 05:13:57;;;;;;;;;34.33;26.67;;;;;5.55;100.00;102285.88;5055294;28;45541;-80
2023/01/28 05:16:22;;;;;;;;;15.25;14.00;;;;;5.65;100.00;102305.81;5074749;27;45453;-79
2023/01/28 05:18:51;;;;;;;;;33.67;26.67;;;;;5.60;100.00;102306.25;5075921;28;46024;-80
2023/01/28 05:21:17;;;;;;;;;35.67;25.67;;;;;5.57;100.00;102303.81;5081577;27;45433;-80
2023/01/28 05:23:43;;;;;;;;;26.33;24.33;;;;;5.46;100.00;102287.56;5082655;27;45379;-77
2023/01/28 05:26:09;;;;;;;;;26.67;23.33;;;;;5.52;100.00;102299.75;5074945;28;45578;-77
2023/01/28 05:28:35;;;;;;;;;32.00;26.50;;;;;5.39;100.00;102289.09;5076331;28;45758;-78
2023/01/28 05:31:05;;;;;;;;;31.50;28.25;;;;;5.42;100.00;102303.31;5086086;28;45411;-79
2023/01/28 05:33:30;;;;;;;;;21.67;19.00;;;;;5.42;100.00;102297.88;5086546;28;44771;-80
2023/01/28 05:35:56;;;;;;;;;30.00;24.33;;;;;5.52;100.00;102316.09;5082428;28;45472;-77
2023/01/28 05:38:21;;;;;;;;;35.67;26.00;;;;;5.59;100.00;102322.72;5065987;28;48165;-80
2023/01/28 05:40:47;;;;;;;;;25.33;21.00;;;;;5.55;100.00;102313.09;5083709;28;45438;-79
2023/01/28 05:43:13;;;;;;;;;29.67;22.33;;;;;5.47;100.00;102313.78;5089271;27;45432;-78
2023/01/28 05:45:38;;;;;;;;;32.33;24.67;;;;;5.33;100.00;102286.94;5093965;27;45511;-80
2023/01/28 05:48:04;;;;;;;;;35.67;25.00;;;;;5.47;100.00;102305.63;5063982;28;45568;-79
2023/01/28 05:50:30;;;;;;;;;26.50;24.25;;;;;5.51;100.00;102322.53;5066180;27;45494;-78
2023/01/28 05:52:55;;;;;;;;;32.75;27.25;;;;;5.48;100.00;102316.38;5080995;27;45445;-81
2023/01/28 05:55:21;;;;;;;;;34.50;26.75;;;;;5.42;100.00;102321.47;5056010;28;46281;-79
2023/01/28 05:57:47;;;;;;;;;33.00;24.75;;;;;5.21;100.00;102300.63;5049353;28;47134;-83
2023/01/28 06:00:14;;;;;;;;;27.33;22.33;;;;;5.27;100.00;102321.00;5071537;28;45660;-80
2023/01/28 06:02:41;;;;;;;;;29.00;24.50;;;;;5.26;100.00;102319.25;5054733;28;45462;-79
2023/01/28 06:05:07;;;;;;;;;29.00;26.00;;;;;5.29;100.00;102311.69;5087567;27;45616;-78
2023/01/28 06:07:32;;;;;;;;;25.33;22.33;;;;;5.22;100.00;102304.19;5074239;27;45638;-77
2023/01/28 06:09:58;;;;;;;;;36.00;25.00;;;;;5.30;100.00;102324.28;5073870;27;45420;-79
2023/01/28 06:12:23;;;;;;;;;21.50;19.25;;;;;5.36;100.00;102333.78;5059424;28;45269;-77
2023/01/28 06:14:49;;;;;;;;;22.00;18.00;;;;;5.38;100.00;102334.50;5078118;27;45921;-78
2023/01/28 06:17:14;;;;;;;;;28.67;24.00;;;;;5.47;100.00;102344.56;5079564;27;45699;-78
2023/01/28 06:19:40;;;;;;;;;26.00;23.00;;;;;5.46;100.00;102344.69;5082984;27;45557;-79
2023/01/28 06:22:06;;;;;;;;;24.00;22.67;;;;;5.48;100.00;102349.03;5078417;27;45701;-77
2023/01/28 06:24:31;;;;;;;;;23.33;21.33;;;;;5.27;100.00;102312.84;5088325;27;45471;-79
2023/01/28 06:27:01;;;;;;;;;32.33;26.33;;;;;5.51;100.00;102352.44;5088777;27;45504;-79
2023/01/28 06:29:30;;;;;;;;;23.00;20.67;;;;;5.37;100.00;102330.03;5085069;27;45389;-81
2023/01/28 06:31:55;;;;;;;;;25.00;21.25;;;;;5.33;100.00;102330.44;5087311;27;44948;-78
2023/01/28 06:34:21;;;;;;;;;19.33;19.33;;;;;5.49;100.00;102349.88;5086027;27;45575;-78
2023/01/28 06:36:46;;;;;;;;;24.33;22.00;;;;;5.44;100.00;102347.56;5081929;27;46881;-80
2023/01/28 06:39:12;;;;;;;;;30.00;23.33;;;;;5.38;100.00;102328.22;5079976;27;45891;-78
2023/01/28 06:41:37;;;;;;;;;32.50;26.00;;;;;5.38;100.00;102339.94;5050865;28;46549;-79
2023/01/28 06:44:03;;;;;;;;;22.75;20.00;;;;;5.54;100.00;102365.78;5056321;28;45770;-79
2023/01/28 06:46:28;;;;;;;;;18.00;17.00;;;;;5.55;100.00;102362.06;5056145;28;45992;-80
2023/01/28 06:48:54;;;;;;;;;26.67;23.67;;;;;5.56;100.00;102361.09;5056500;28;45532;-81
2023/01/28 06:51:19;;;;;;;;;31.00;24.75;;;;;5.61;100.00;102369.69;5057747;28;45508;-81
2023/01/28 06:53:45;;;;;;;;;34.25;24.75;;;;;5.61;100.00;102369.69;5053789;28;45398;-80
2023/01/28 06:56:10;;;;;;;;;31.67;23.67;;;;;5.42;100.00;102337.78;5052177;28;47722;-82
2023/01/28 06:58:36;;;;;;;;;22.50;18.75;;;;;5.62;100.00;102375.00;5053361;28;45890;-81
2023/01/28 07:01:02;;;;;;;;;29.33;26.00;;;;;5.61;100.00;102370.56;5047996;28;45843;-79
2023/01/28 07:03:28;;;;;;;;;20.00;20.00;;;;;5.64;100.00;102367.56;5058855;28;46316;-79
2023/01/28 07:05:53;;;;;;;;;18.33;15.00;;;;;5.65;100.00;102366.56;5048172;28;46479;-80
2023/01/28 07:08:20;;;;;;;;;23.33;22.33;;;;;5.67;100.00;102374.59;5040126;28;45516;-80
2023/01/28 07:10:45;;;;;;;;;27.67;20.33;;;;;5.65;100.00;102372.00;5047392;28;45589;-80
2023/01/28 07:13:10;;;;;;;;;25.33;21.33;;;;;5.65;100.00;102374.72;5065902;27;45531;-79
2023/01/28 07:15:36;;;;;;;;;28.00;21.00;;;;;5.50;100.00;102350.75;5059460;28;45493;-79
2023/01/28 07:18:02;;;;;;;;;29.33;24.33;;;;;5.64;100.00;102374.84;5048879;28;45670;-79
2023/01/28 07:20:27;;;;;;;;;23.67;22.33;;;;;5.67;100.00;102374.59;5051436;28;45685;-80
2023/01/28 07:22:53;;;;;;;;;29.33;22.67;;;;;5.51;100.00;102347.91;5050110;28;45805;-80
2023/01/28 07:25:19;;;;;;;;;25.33;20.00;;;;;5.62;100.00;102376.88;5044871;28;45796;-80
2023/01/28 07:27:52;;;;;;;;;23.00;22.25;;;;;5.61;100.00;102376.00;5053144;28;45576;-80
2023/01/28 07:30:19;;;;;;;;;24.67;21.67;;;;;5.56;100.00;102385.56;5047948;28;46765;-81
2023/01/28 07:32:45;;;;;;;;;23.00;19.33;;;;;5.58;100.00;102380.84;5061382;28;45454;-82
2023/01/28 07:35:12;;;;;;;;;26.75;21.00;;;;;5.51;100.00;102376.94;5052901;27;45588;-79
2023/01/28 07:37:38;;;;;;;;;48.25;29.25;;;;;5.50;100.00;102394.28;5053049;28;45351;-80
2023/01/28 07:40:04;;;;;;;;;29.50;24.25;;;;;5.42;100.00;102384.06;5054418;28;46457;-82
2023/01/28 07:42:30;;;;;;;;;27.33;22.00;;;;;5.39;100.00;102379.75;5067893;28;45975;-80
2023/01/28 07:44:56;;;;;;;;;20.25;17.00;;;;;5.41;100.00;102385.06;5061293;27;45551;-82
2023/01/28 07:47:21;;;;;;;;;31.67;25.00;;;;;5.45;100.00;102403.72;5064654;27;45755;-82
2023/01/28 07:49:47;;;;;;;;;32.00;22.75;;;;;5.40;100.00;102403.22;5048825;28;45474;-80
2023/01/28 07:52:14;;;;;;;;;27.67;25.00;;;;;5.40;100.00;102408.66;5068916;28;46321;-81
2023/01/28 07:54:39;;;;;;;;;11.00;11.00;;;;;5.43;100.00;102411.16;5058833;27;46689;-81
2023/01/28 07:57:08;;;;;;;;;25.33;22.67;;;;;5.27;100.00;102378.13;5078344;27;45886;-82
2023/01/28 07:59:34;;;;;;;;;35.25;25.75;;;;;5.46;100.00;102407.28;5080307;27;45384;-82
2023/01/28 08:02:00;;;;;;;;;22.25;17.50;;;;;5.42;100.00;102400.38;5061309;28;45853;-79
2023/01/28 08:04:26;;;;;;;;;26.50;21.75;;;;;5.44;100.00;102401.97;5081361;27;46175;-80
2023/01/28 08:06:51;;;;;;;;;28.50;21.50;;;;;5.43;100.00;102400.28;5065931;27;45489;-82
2023/01/28 08:09:17;;;;;;;;;30.50;24.25;;;;;5.41;100.00;102398.69;5076706;27;45669;-79
2023/01/28 08:11:42;;;;;;;;;30.00;28.75;;;;;5.50;100.00;102413.34;5069789;27;46402;-79
2023/01/28 08:14:10;;;;;;;;;37.00;27.75;;;;;5.44;100.00;102410.13;5077594;27;47132;-82
2023/01/28 08:16:35;;;;;;;;;33.75;23.75;;;;;5.52;100.00;102411.34;5082421;27;45383;-81
2023/01/28 08:19:01;;;;;;;;;29.50;23.75;;;;;5.44;100.00;102388.38;5076920;27;45780;-78
2023/01/28 08:21:27;;;;;;;;;27.50;25.25;;;;;5.64;100.00;102415.69;5077791;27;45473;-77
2023/01/28 08:23:53;;;;;;;;;34.25;26.00;;;;;5.55;100.00;102395.59;5058530;28;45605;-79
2023/01/28 08:26:19;;;;;;;;;28.67;24.00;;;;;5.74;100.00;102429.38;5080460;27;45441;-78
2023/01/28 08:28:44;;;;;;;;;25.00;18.25;;;;;5.74;100.00;102424.78;5080951;27;45773;-78
2023/01/28 08:31:10;;;;;;;;;43.75;33.25;;;;;5.76;100.00;102417.34;5056720;27;46116;-77
2023/01/28 08:33:35;;;;;;;;;26.25;22.00;;;;;5.91;100.00;102436.88;5060780;27;47135;-79
2023/01/28 08:36:04;;;;;;;;;35.00;28.25;;;;;5.94;100.00;102441.19;5090394;27;45750;-80
2023/01/28 08:38:30;;;;;;;;;34.50;24.75;;;;;5.87;100.00;102412.78;5065010;28;45363;-82
2023/01/28 08:40:56;;;;;;;;;37.00;27.25;;;;;6.03;100.00;102439.56;5038738;28;45573;-80
2023/01/28 08:43:23;;;;;;;;;32.75;24.50;;;;;6.12;100.00;102453.22;5072155;27;46465;-80
2023/01/28 08:45:49;;;;;;;;;34.50;27.00;;;;;6.00;100.00;102435.22;5068251;28;45490;-81
2023/01/28 08:48:16;;;;;;;;;26.00;20.75;;;;;6.00;100.00;102436.13;5070646;27;45442;-81
2023/01/28 08:50:42;;;;;;;;;23.25;21.25;;;;;5.98;100.00;102431.78;5077386;27;45681;-80
2023/01/28 08:53:17;;;;;;;;;21.67;19.00;;;;;6.09;100.00;102453.50;5091688;27;46317;-83
2023/01/28 08:55:50;;;;;;;;;29.00;25.50;;;;;6.09;100.00;102466.25;5086232;27;45527;-85
2023/01/28 08:58:17;;;;;;;;;22.25;19.00;;;;;5.98;100.00;102461.75;5067064;27;45406;-85
2023/01/28 09:01:05;;;;;;;;;28.33;21.00;;;;;5.97;100.00;102468.19;5066173;28;45901;-86
2023/01/28 09:03:50;;;;;;;;;29.33;23.33;;;;;5.95;100.00;102464.72;5069405;28;47199;-83
2023/01/28 09:06:16;;;;;;;;;26.00;22.25;;;;;5.82;100.00;102454.03;5072188;28;44995;-83
2023/01/28 09:08:42;;;;;;;;;28.50;21.25;;;;;5.83;100.00;102432.13;5092167;28;44715;-81
2023/01/28 09:11:09;;;;;;;;;24.67;19.00;;;;;5.98;100.00;102450.84;5093103;27;44770;-83
2023/01/28 09:13:36;;;;;;;;;27.67;25.00;;;;;5.95;100.00;102459.28;5076440;28;45552;-84
2023/01/28 09:16:05;;;;;;;;;23.00;20.00;;;;;6.08;100.00;102476.28;5077431;28;45453;-82
2023/01/28 09:18:30;;;;;;;;;24.50;21.00;;;;;5.73;100.00;102419.47;5087601;28;44758;-82
2023/01/28 09:20:59;;;;;;;;;24.67;17.67;;;;;6.14;100.00;102473.00;5057776;28;45893;-83
2023/01/28 09:23:27;;;;;;;;;22.00;20.00;;;;;6.19;100.00;102478.88;5084531;27;47859;-81
2023/01/28 09:25:59;;;;;;;;;23.00;17.33;;;;;5.83;100.00;102413.06;5070145;28;45249;-83
2023/01/28 09:28:25;;;;;;;;;22.25;18.25;;;;;6.16;100.00;102462.81;5081991;28;45278;-84
2023/01/28 09:30:50;;;;;;;;;26.00;20.75;;;;;6.28;100.00;102482.66;5074158;28;45561;-82
2023/01/28 09:33:16;;;;;;;;;31.75;25.25;;;;;6.29;100.00;102483.53;5080708;28;46434;-83
2023/01/28 09:35:42;;;;;;;;;39.25;31.75;;;;;6.08;100.00;102454.50;5100410;27;45361;-82
2023/01/28 09:38:22;;;;;;;;;23.00;20.67;;;;;6.30;100.00;102490.69;5094889;28;45489;-86
2023/01/28 09:40:48;;;;;;;;;25.33;22.67;;;;;6.08;100.00;102442.72;5094796;28;45243;-81
2023/01/28 09:43:35;;;;;;;;;30.00;24.33;;;;;6.39;100.00;102491.72;5083581;28;47136;-83
2023/01/28 09:46:04;;;;;;;;;31.50;23.25;;;;;6.16;100.00;102465.53;5068320;28;45214;-83
2023/01/28 09:48:47;;;;;;;;;19.33;17.00;;;;;6.26;100.00;102494.72;5072308;28;44962;-83
2023/01/28 09:51:32;;;;;;;;;28.33;22.33;;;;;6.00;100.00;102448.84;5079067;28;45460;-82
2023/01/28 09:54:05;;;;;;;;;23.00;22.00;;;;;6.25;100.00;102488.38;5077152;28;46964;-84
2023/01/28 09:56:44;;;;;;;;;28.67;24.00;;;;;5.81;100.00;102423.22;5069573;28;44931;-86
2023/01/28 09:59:20;;;;;;;;;24.00;21.00;;;;;6.23;100.00;102489.50;5079012;28;44768;-85
2023/01/28 10:02:01;;;;;;;;;25.67;19.00;;;;;5.93;100.00;102445.78;5086008;28;45911;-82
2023/01/28 10:04:43;;;;;;;;;25.00;21.00;;;;;6.14;100.00;102497.53;5061925;28;46388;-82
2023/01/28 10:07:24;;;;;;;;;26.33;23.00;;;;;6.00;100.00;102462.47;5074241;28;45175;-82
2023/01/28 10:10:01;;;;;;;;;22.67;18.67;;;;;6.07;100.00;102471.81;5058273;28;45433;-82
2023/01/28 10:12:47;;;;;;;;;30.33;22.00;;;;;6.25;100.00;102503.88;5073806;28;45155;-82
2023/01/28 10:15:35;;;;;;;;;23.33;21.33;;;;;6.18;100.00;102503.56;5080838;28;48002;-84
2023/01/28 10:18:07;;;;;;;;;34.00;23.33;;;;;6.11;100.00;102491.50;5078885;28;45457;-85
2023/01/28 10:20:41;;;;;;;;;25.33;22.67;;;;;6.11;100.00;102496.94;5077880;28;45463;-83
2023/01/28 10:23:19;;;;;;;;;15.67;13.00;;;;;5.96;100.00;102494.53;5075590;28;45391;-82
2023/01/28 10:25:47;;;;;;;;;26.00;22.67;;;;;5.96;100.00;102499.13;5074053;28;45605;-83
2023/01/28 10:28:25;;;;;;;;;20.33;16.00;;;;;5.88;100.00;102496.19;5062556;28;44787;-83
2023/01/28 10:30:51;;;;;;;;;24.75;21.50;;;;;6.01;100.00;102514.06;5070998;28;45002;-82
2023/01/28 10:33:26;;;;;;;;;23.00;20.50;;;;;5.96;100.00;102512.75;5081674;28;46191;-82
2023/01/28 10:35:54;;;;;;;;;23.50;19.25;;;;;5.77;100.00;102511.63;5095641;28;45196;-81
2023/01/28 10:38:22;;;;;;;;;25.50;23.00;;;;;5.64;100.00;102506.38;5076389;28;44829;-81
2023/01/28 10:40:49;;;;;;;;;24.75;20.75;;;;;5.71;100.00;102528.47;5066658;28;44796;-81
2023/01/28 10:43:28;;;;;;;;;22.25;20.50;;;;;5.52;100.00;102506.56;5097724;27;44777;-81
2023/01/28 10:46:31;;;;;;;;;19.00;13.50;;;;;5.65;100.00;102543.47;5098629;27;45391;-81
2023/01/28 10:49:08;;;;;;;;;31.67;24.00;;;;;5.62;100.00;102534.72;5071569;28;45467;-84
2023/01/28 10:51:37;;;;;;;;;21.67;21.33;;;;;5.37;100.00;102497.88;5096974;28;44793;-82
2023/01/28 10:54:16;;;;;;;;;23.50;19.75;;;;;5.52;100.00;102522.91;5097727;27;45452;-81
2023/01/28 10:56:43;;;;;;;;;23.50;19.75;;;;;5.50;100.00;102531.19;5080955;27;45891;-81
2023/01/28 10:59:21;;;;;;;;;32.50;24.25;;;;;5.48;100.00;102534.06;5098313;27;45439;-81
2023/01/28 11:01:50;;;;;;;;;29.00;20.00;;;;;5.47;100.00;102521.44;5093247;27;45345;-81
2023/01/28 11:04:18;;;;;;;;;28.00;19.75;;;;;5.40;100.00;102511.22;5092347;28;45065;-81
2023/01/28 11:07:26;;;;;;;;;27.50;23.75;;;;;5.51;100.00;102529.34;5075391;27;46678;-83
2023/01/28 11:09:52;;;;;;;;;35.50;26.75;;;;;5.48;100.00;102501.41;5029080;28;45996;-80
2023/01/28 11:12:26;;;;;;;;;32.75;26.75;;;;;5.63;100.00;102512.81;5032400;22;45658;-70
2023/01/28 11:15:16;;;;;;;;;19.50;19.50;;;;;5.70;100.00;102515.84;5013118;28;46097;-71
2023/01/28 11:17:50;;;;;;;;;28.25;25.25;;;;;5.71;100.00;102505.84;5022397;28;45385;-72
2023/01/28 11:20:23;;;;;;;;;26.25;21.25;;;;;5.68;100.00;102517.88;5015270;28;45882;-71
2023/01/28 11:22:50;;;;;;;;;25.75;20.50;;;;;5.62;100.00;102521.13;5023164;28;45714;-71
2023/01/28 11:25:17;;;;;;;;;30.75;25.75;;;;;5.57;100.00;102520.63;5018032;28;45749;-73
2023/01/28 11:27:52;;;;;;;;;27.50;19.00;;;;;5.37;100.00;102498.72;5030685;28;45751;-72
2023/01/28 11:30:32;;;;;;;;;25.75;20.50;;;;;5.44;100.00;102505.38;5031319;28;45566;-73
2023/01/28 11:33:13;;;;;;;;;25.00;21.67;;;;;5.52;100.00;102509.28;5031174;28;45459;-72
2023/01/28 11:35:38;;;;;;;;;26.25;22.50;;;;;5.51;100.00;102508.44;5030272;28;45543;-72
2023/01/28 11:38:17;;;;;;;;;30.67;19.33;;;;;5.56;100.00;102518.94;5030339;28;45557;-75
2023/01/28 11:40:54;;;;;;;;;25.75;24.00;;;;;5.60;100.00;102504.06;5027695;28;45694;-73
2023/01/28 11:43:25;;;;;;;;;30.50;27.25;;;;;5.63;100.00;102507.38;5033570;28;45377;-71
2023/01/28 11:46:29;;;;;;;;;21.67;20.00;;;;;5.64;100.00;102500.94;5028657;28;45517;-73
2023/01/28 11:49:21;;;;;;;;;28.25;23.25;;;;;5.75;100.00;102510.00;4984411;28;45648;-71
2023/01/28 11:51:57;;;;;;;;;27.00;22.00;;;;;5.77;100.00;102503.44;4983880;28;46015;-72